Time;durP1;ratioP1;P1;durP2;ratioP2;P2;SDS_P1;SDS_P2;PMS_P1;PMS_P2;Temp;Humidity;BMP_temperature;BMP_pressure;BME280_temperature;BME280_humidity;BME280_pressure;Samples;Min_cycle;Max_cycle;Signal;HPM_P1;HPM_P2
2021/08/06 00:01:17;;;;;;;;;;;;;;;30.79;25.14;97635.94;5033211;28;19917;-73
2021/08/06 00:03:42;;;;;;;;;;;;;;;30.79;25.25;97637.94;5033549;28;19921;-75
2021/08/06 00:06:08;;;;;;;;;;;;;;;30.84;25.61;97650.41;5033775;28;19962;-75
2021/08/06 00:08:34;;;;;;;;;;;;;;;30.87;25.11;97649.50;5032288;28;20292;-77
2021/08/06 00:11:00;;;;;;;;;;;;;;;30.89;25.52;97652.59;5031975;28;20006;-75
2021/08/06 00:13:25;;;;;;;;;;;;;;;30.91;25.41;97650.16;5033684;28;19972;-74
2021/08/06 00:15:51;;;;;;;;;;;;;;;30.94;25.38;97652.78;5032660;28;19917;-76
2021/08/06 00:18:16;;;;;;;;;;;;;;;30.96;25.70;97646.81;5032713;28;19923;-75
2021/08/06 00:20:41;;;;;;;;;;;;;;;30.97;25.45;97638.09;5033428;28;19913;-75
2021/08/06 00:23:07;;;;;;;;;;;;;;;30.98;25.34;97634.13;5033128;28;19913;-76
2021/08/06 00:25:32;;;;;;;;;;;;;;;30.99;25.04;97632.13;5031941;28;19924;-75
2021/08/06 00:27:57;;;;;;;;;;;;;;;30.97;25.28;97618.75;5033553;28;19967;-75
2021/08/06 00:30:23;;;;;;;;;;;;;;;30.98;25.30;97617.56;5033051;28;19917;-75
2021/08/06 00:32:48;;;;;;;;;;;;;;;30.94;25.23;97610.63;5032421;28;19917;-75
2021/08/06 00:35:13;;;;;;;;;;;;;;;30.93;25.30;97620.09;5012159;28;19920;-75
2021/08/06 00:37:39;;;;;;;;;;;;;;;30.90;25.01;97615.50;5013497;28;19999;-75
2021/08/06 00:40:04;;;;;;;;;;;;;;;30.90;25.16;97623.78;5026574;28;19921;-76
2021/08/06 00:42:29;;;;;;;;;;;;;;;30.89;25.70;97628.50;5033120;28;20386;-76
2021/08/06 00:44:55;;;;;;;;;;;;;;;30.84;25.67;97628.34;5032175;28;19948;-75
2021/08/06 00:47:20;;;;;;;;;;;;;;;30.78;25.51;97628.13;5032618;28;19921;-75
2021/08/06 00:49:46;;;;;;;;;;;;;;;30.76;25.98;97641.59;5032226;28;19924;-75
2021/08/06 00:52:11;;;;;;;;;;;;;;;30.73;26.10;97634.22;5032621;28;20346;-75
2021/08/06 00:54:37;;;;;;;;;;;;;;;30.72;25.88;97644.47;5033213;28;19966;-76
2021/08/06 00:57:02;;;;;;;;;;;;;;;30.69;26.00;97639.06;5031386;28;20052;-76
2021/08/06 00:59:28;;;;;;;;;;;;;;;30.68;26.01;97641.06;5031616;28;19920;-76
2021/08/06 01:02:02;;;;;;;;;;;;;;;30.68;26.46;97632.78;5031993;28;19975;-76
2021/08/06 01:04:51;;;;;;;;;;;;;;;30.68;26.21;97623.75;5032281;28;20300;-74
2021/08/06 01:07:19;;;;;;;;;;;;;;;30.65;26.28;97626.19;5032569;28;20015;-74
2021/08/06 01:09:46;;;;;;;;;;;;;;;30.64;26.66;97634.91;5031659;28;20364;-75
2021/08/06 01:12:32;;;;;;;;;;;;;;;30.63;27.01;97638.91;5032218;28;20356;-74
2021/08/06 01:14:59;;;;;;;;;;;;;;;30.57;27.58;97637.91;5030063;28;20430;-74
2021/08/06 01:17:25;;;;;;;;;;;;;;;30.53;28.21;97651.03;5031888;28;19967;-73
2021/08/06 01:20:01;;;;;;;;;;;;;;;30.46;28.82;97643.75;5031826;28;19920;-75
2021/08/06 01:22:46;;;;;;;;;;;;;;;30.36;28.86;97645.66;5032043;28;19996;-75
2021/08/06 01:25:15;;;;;;;;;;;;;;;30.24;28.82;97632.66;5032147;28;20403;-74
2021/08/06 01:27:41;;;;;;;;;;;;;;;30.09;29.31;97624.06;5032328;28;19942;-74
2021/08/06 01:30:08;;;;;;;;;;;;;;;29.86;29.77;97634.97;5031985;28;19931;-74
2021/08/06 01:32:34;;;;;;;;;;;;;;;29.67;29.61;97641.47;5031815;28;20372;-75
2021/08/06 01:34:59;;;;;;;;;;;;;;;29.51;29.51;97645.09;5031645;28;19917;-75
2021/08/06 01:37:24;;;;;;;;;;;;;;;29.35;29.73;97634.94;5030848;28;20579;-78
2021/08/06 01:39:50;;;;;;;;;;;;;;;29.18;29.97;97626.69;5030500;28;19959;-76
2021/08/06 01:42:21;;;;;;;;;;;;;;;29.03;30.17;97620.84;5031486;28;20319;-73
2021/08/06 01:44:46;;;;;;;;;;;;;;;28.88;30.31;97620.47;5031993;28;19936;-75
2021/08/06 01:47:19;;;;;;;;;;;;;;;28.75;30.42;97622.38;5030787;28;20312;-76
2021/08/06 01:49:48;;;;;;;;;;;;;;;28.65;30.88;97624.19;5030521;28;20299;-75
2021/08/06 01:52:15;;;;;;;;;;;;;;;28.53;31.22;97639.41;5031792;28;19979;-76
2021/08/06 01:54:42;;;;;;;;;;;;;;;28.40;31.78;97620.06;5031520;28;20289;-75
2021/08/06 01:57:08;;;;;;;;;;;;;;;28.25;32.22;97630.66;5030265;28;19920;-75
2021/08/06 01:59:34;;;;;;;;;;;;;;;28.11;32.61;97631.00;5031733;28;20328;-74
2021/08/06 02:02:00;;;;;;;;;;;;;;;27.95;33.17;97645.47;5031199;28;19955;-74
2021/08/06 02:04:25;;;;;;;;;;;;;;;27.78;33.78;97641.94;5031382;28;19971;-77
2021/08/06 02:06:51;;;;;;;;;;;;;;;27.58;34.62;97636.50;5030120;28;19917;-78
2021/08/06 02:09:17;;;;;;;;;;;;;;;27.44;35.24;97621.06;5029805;28;19924;-78
2021/08/06 02:11:42;;;;;;;;;;;;;;;27.35;35.22;97618.13;5030279;28;19913;-79
2021/08/06 02:14:09;;;;;;;;;;;;;;;27.23;35.79;97609.31;5030106;28;20277;-77
2021/08/06 02:16:34;;;;;;;;;;;;;;;27.17;36.22;97614.53;5029754;28;20419;-77
2021/08/06 02:19:00;;;;;;;;;;;;;;;27.11;36.26;97623.69;5030075;28;19917;-79
2021/08/06 02:21:30;;;;;;;;;;;;;;;27.08;36.44;97624.53;5030208;28;19913;-78
2021/08/06 02:23:57;;;;;;;;;;;;;;;27.07;36.83;97631.22;5029978;28;20346;-78
2021/08/06 02:26:23;;;;;;;;;;;;;;;27.07;36.81;97631.22;5029968;28;19917;-75
2021/08/06 02:28:50;;;;;;;;;;;;;;;27.07;36.76;97625.72;5029944;28;19919;-77
2021/08/06 02:31:16;;;;;;;;;;;;;;;27.05;37.14;97626.16;5030561;28;19925;-77
2021/08/06 02:33:42;;;;;;;;;;;;;;;27.02;37.34;97643.44;5031227;28;19924;-79
2021/08/06 02:36:07;;;;;;;;;;;;;;;27.04;37.05;97641.06;5029758;28;19917;-77
2021/08/06 02:38:34;;;;;;;;;;;;;;;27.02;37.00;97640.69;5030044;28;20222;-77
2021/08/06 02:40:59;;;;;;;;;;;;;;;27.04;37.48;97646.56;5029211;28;19917;-75
2021/08/06 02:43:24;;;;;;;;;;;;;;;27.02;37.44;97639.94;5031569;28;19920;-75
2021/08/06 02:45:50;;;;;;;;;;;;;;;27.03;37.21;97638.75;5030894;28;20009;-75
2021/08/06 02:48:16;;;;;;;;;;;;;;;27.02;37.45;97645.44;5030517;28;19919;-74
2021/08/06 02:50:41;;;;;;;;;;;;;;;27.02;37.22;97642.69;5030726;28;20431;-76
2021/08/06 02:53:07;;;;;;;;;;;;;;;27.00;37.34;97648.56;5029740;28;19913;-75
2021/08/06 02:55:32;;;;;;;;;;;;;;;26.99;37.48;97650.56;5031140;28;19913;-75
2021/08/06 02:57:57;;;;;;;;;;;;;;;26.97;37.66;97644.69;5031259;28;19920;-75
2021/08/06 03:00:22;;;;;;;;;;;;;;;26.97;37.33;97641.19;5030598;28;20500;-75
2021/08/06 03:02:48;;;;;;;;;;;;;;;26.99;37.38;97641.56;5029588;28;19924;-75
2021/08/06 03:05:13;;;;;;;;;;;;;;;27.02;37.38;97648.16;5030630;28;20300;-75
2021/08/06 03:07:38;;;;;;;;;;;;;;;27.05;37.30;97644.56;5030865;28;19913;-75
2021/08/06 03:10:04;;;;;;;;;;;;;;;27.04;37.56;97649.28;5029558;28;20000;-75
2021/08/06 03:12:30;;;;;;;;;;;;;;;27.00;37.66;97654.84;5030942;28;19920;-74
2021/08/06 03:14:55;;;;;;;;;;;;;;;26.99;37.47;97664.28;5030428;28;19921;-73
2021/08/06 03:17:20;;;;;;;;;;;;;;;26.96;37.56;97659.59;5030396;28;19971;-73
2021/08/06 03:19:45;;;;;;;;;;;;;;;26.99;37.53;97658.78;5031004;28;19920;-73
2021/08/06 03:22:11;;;;;;;;;;;;;;;26.95;37.53;97660.84;5030167;28;19974;-75
2021/08/06 03:24:36;;;;;;;;;;;;;;;26.95;37.57;97655.34;5030698;28;19913;-75
2021/08/06 03:27:01;;;;;;;;;;;;;;;26.94;37.69;97653.00;5029714;28;19924;-75
2021/08/06 03:29:27;;;;;;;;;;;;;;;26.96;37.84;97656.09;5030794;28;19924;-75
2021/08/06 03:31:52;;;;;;;;;;;;;;;27.00;37.66;97657.59;5030540;28;20395;-75
2021/08/06 03:34:17;;;;;;;;;;;;;;;27.07;37.27;97658.66;5032405;28;19924;-75
2021/08/06 03:36:43;;;;;;;;;;;;;;;27.12;37.36;97669.91;5033016;28;19943;-76
2021/08/06 03:39:08;;;;;;;;;;;;;;;27.19;37.30;97654.50;5032672;28;19924;-76
2021/08/06 03:41:33;;;;;;;;;;;;;;;27.23;37.43;97646.97;5033082;28;20011;-76
2021/08/06 03:43:59;;;;;;;;;;;;;;;27.28;37.27;97660.19;5033999;28;20011;-75
2021/08/06 03:46:24;;;;;;;;;;;;;;;27.30;37.23;97655.81;5033528;28;20293;-75
2021/08/06 03:48:50;;;;;;;;;;;;;;;27.37;36.91;97656.88;5034081;28;19921;-90
2021/08/06 03:51:16;;;;;;;;;;;;;;;27.42;37.17;97657.19;5032086;28;20397;-75
2021/08/06 03:53:41;;;;;;;;;;;;;;;27.52;37.16;97657.41;5033824;28;20000;-75
2021/08/06 03:56:07;;;;;;;;;;;;;;;27.62;36.95;97651.69;5034092;28;19913;-76
2021/08/06 03:58:32;;;;;;;;;;;;;;;27.71;37.14;97653.06;5034274;28;20434;-74
2021/08/06 04:00:57;;;;;;;;;;;;;;;27.81;37.12;97643.84;5033456;28;20007;-75
2021/08/06 04:03:22;;;;;;;;;;;;;;;27.90;36.85;97646.00;5033884;28;19913;-79
2021/08/06 04:05:48;;;;;;;;;;;;;;;27.98;36.43;97652.09;5032625;28;19935;-79
2021/08/06 04:08:13;;;;;;;;;;;;;;;28.06;36.20;97645.25;5032034;28;19936;-73
2021/08/06 04:10:38;;;;;;;;;;;;;;;28.05;36.20;97650.00;5032369;28;19913;-74
2021/08/06 04:13:04;;;;;;;;;;;;;;;28.11;36.12;97645.53;5033169;28;20012;-75
2021/08/06 04:15:29;;;;;;;;;;;;;;;28.17;36.10;97654.00;5033580;28;20360;-76
2021/08/06 04:17:54;;;;;;;;;;;;;;;28.25;36.11;97652.66;5033855;28;20391;-78
2021/08/06 04:20:20;;;;;;;;;;;;;;;28.32;35.85;97656.44;5032061;28;20014;-78
2021/08/06 04:22:45;;;;;;;;;;;;;;;28.43;35.99;97670.72;5032215;28;19936;-79
2021/08/06 04:25:11;;;;;;;;;;;;;;;28.52;36.04;97664.59;5031598;28;20410;-79
2021/08/06 04:27:37;;;;;;;;;;;;;;;28.68;35.75;97669.31;5032150;28;20376;-78
2021/08/06 04:30:07;;;;;;;;;;;;;;;28.83;35.60;97664.22;5031743;28;19909;-79
2021/08/06 04:32:32;;;;;;;;;;;;;;;29.07;35.45;97659.25;5032028;28;19920;-79
2021/08/06 04:34:58;;;;;;;;;;;;;;;29.33;35.17;97651.09;5031816;28;20304;-79
2021/08/06 04:37:23;;;;;;;;;;;;;;;29.61;34.34;97645.97;5032005;28;19913;-79
2021/08/06 04:39:48;;;;;;;;;;;;;;;29.93;33.90;97638.75;5033468;28;19948;-80
2021/08/06 04:42:14;;;;;;;;;;;;;;;30.28;33.34;97644.34;5032900;28;20455;-79
2021/08/06 04:44:40;;;;;;;;;;;;;;;30.54;32.92;97636.81;5031816;28;19979;-79
2021/08/06 04:47:06;;;;;;;;;;;;;;;30.82;33.00;97635.06;5032268;28;19912;-79
2021/08/06 04:49:31;;;;;;;;;;;;;;;30.96;32.12;97635.78;5064802;28;19917;-79
2021/08/06 04:51:57;;;;;;;;;;;;;;;31.12;32.14;97630.09;5064941;28;20439;-79
2021/08/06 04:54:22;;;;;;;;;;;;;;;31.28;31.38;97634.63;5032241;28;20308;-79
2021/08/06 04:56:47;;;;;;;;;;;;;;;31.41;31.04;97636.56;5064750;28;19913;-79
2021/08/06 04:59:13;;;;;;;;;;;;;;;31.45;31.09;97639.97;5031427;28;20323;-79
2021/08/06 05:01:38;;;;;;;;;;;;;;;31.34;31.32;97670.72;5031614;28;20010;-79
2021/08/06 05:04:03;;;;;;;;;;;;;;;31.26;31.03;97691.53;5031118;28;20304;-79
2021/08/06 05:06:29;;;;;;;;;;;;;;;31.12;31.75;97685.31;5032159;28;19920;-79
2021/08/06 05:08:54;;;;;;;;;;;;;;;30.98;31.62;97677.50;5031344;28;20304;-79
2021/08/06 05:11:20;;;;;;;;;;;;;;;30.77;31.82;97670.72;5031062;28;19917;-79
2021/08/06 05:13:45;;;;;;;;;;;;;;;30.57;32.13;97648.94;5031180;28;19913;-79
2021/08/06 05:16:10;;;;;;;;;;;;;;;30.31;32.86;97644.22;5030833;28;19924;-78
2021/08/06 05:18:37;;;;;;;;;;;;;;;30.13;33.38;97652.31;5032250;28;19913;-79
2021/08/06 05:21:03;;;;;;;;;;;;;;;30.02;33.37;97655.41;5030755;28;19913;-78
2021/08/06 05:23:28;;;;;;;;;;;;;;;30.09;33.04;97654.38;5031085;28;19935;-78
2021/08/06 05:25:53;;;;;;;;;;;;;;;30.10;33.00;97655.94;5030800;28;19917;-79
2021/08/06 05:28:19;;;;;;;;;;;;;;;30.08;33.01;97661.13;5030683;28;19920;-78
2021/08/06 05:30:44;;;;;;;;;;;;;;;30.00;32.90;97664.13;5030959;28;19994;-80
2021/08/06 05:33:09;;;;;;;;;;;;;;;29.87;33.18;97666.84;5030761;28;19913;-78
2021/08/06 05:35:34;;;;;;;;;;;;;;;29.73;33.27;97664.50;5030968;28;19917;-78
2021/08/06 05:38:00;;;;;;;;;;;;;;;29.58;33.36;97679.91;5030728;28;19917;-77
2021/08/06 05:40:25;;;;;;;;;;;;;;;29.38;33.82;97678.09;5032252;28;19917;-78
2021/08/06 05:42:50;;;;;;;;;;;;;;;29.21;34.34;97669.09;5030726;28;20314;-77
2021/08/06 05:45:16;;;;;;;;;;;;;;;29.08;34.27;97674.56;5031663;28;20373;-78
2021/08/06 05:47:42;;;;;;;;;;;;;;;28.95;34.86;97676.50;5031633;28;19920;-78
2021/08/06 05:50:07;;;;;;;;;;;;;;;28.87;35.27;97671.19;5063803;28;19968;-80
2021/08/06 05:52:32;;;;;;;;;;;;;;;28.80;35.35;97690.63;5063666;28;19975;-78
2021/08/06 05:54:58;;;;;;;;;;;;;;;28.78;35.56;97697.78;5030489;28;20400;-80
2021/08/06 05:57:23;;;;;;;;;;;;;;;28.77;35.79;97704.47;5031200;28;19921;-80
2021/08/06 05:59:48;;;;;;;;;;;;;;;28.77;36.02;97705.22;5030486;28;19936;-78
2021/08/06 06:02:13;;;;;;;;;;;;;;;28.84;36.06;97713.31;5031177;28;20007;-78
2021/08/06 06:04:39;;;;;;;;;;;;;;;29.01;35.77;97716.81;5031417;28;20312;-79
2021/08/06 06:07:04;;;;;;;;;;;;;;;29.27;35.66;97710.63;5030115;28;19960;-79
2021/08/06 06:09:29;;;;;;;;;;;;;;;29.52;34.83;97712.75;5030320;28;19920;-78
2021/08/06 06:11:54;;;;;;;;;;;;;;;29.70;34.74;97701.97;5030158;28;19920;-79
2021/08/06 06:14:20;;;;;;;;;;;;;;;29.92;34.74;97701.38;5030163;28;19995;-79
2021/08/06 06:16:45;;;;;;;;;;;;;;;30.15;34.06;97694.75;5030128;28;20426;-78
2021/08/06 06:19:10;;;;;;;;;;;;;;;30.39;33.75;97699.16;5031332;28;19924;-79
2021/08/06 06:21:36;;;;;;;;;;;;;;;30.57;33.70;97690.34;5030240;28;19913;-78
2021/08/06 06:24:01;;;;;;;;;;;;;;;30.72;33.46;97699.66;5031082;28;20461;-79
2021/08/06 06:26:26;;;;;;;;;;;;;;;30.68;33.11;97689.97;5031251;28;19924;-79
2021/08/06 06:28:51;;;;;;;;;;;;;;;30.63;33.12;97694.81;5030222;28;19913;-79
2021/08/06 06:31:18;;;;;;;;;;;;;;;30.67;33.37;97700.22;5029883;28;20008;-79
2021/08/06 06:33:44;;;;;;;;;;;;;;;30.74;32.98;97702.75;5030166;28;19913;-80
2021/08/06 06:36:09;;;;;;;;;;;;;;;30.85;32.69;97707.13;5029733;28;19971;-79
2021/08/06 06:38:34;;;;;;;;;;;;;;;30.87;32.72;97699.19;5031429;28;20292;-79
2021/08/06 06:41:00;;;;;;;;;;;;;;;30.97;32.68;97707.09;5029977;28;20418;-79
2021/08/06 06:43:25;;;;;;;;;;;;;;;31.09;32.23;97702.78;5029565;28;20277;-79
2021/08/06 06:45:50;;;;;;;;;;;;;;;31.21;31.82;97695.66;5029891;28;19956;-79
2021/08/06 06:48:16;;;;;;;;;;;;;;;31.37;31.88;97691.94;5030714;28;20289;-79
2021/08/06 06:50:41;;;;;;;;;;;;;;;31.50;31.26;97686.34;5029670;28;19913;-80
2021/08/06 06:53:06;;;;;;;;;;;;;;;31.54;31.59;97686.19;5029713;28;20026;-78
2021/08/06 06:55:31;;;;;;;;;;;;;;;31.54;30.85;97691.72;5030879;28;19978;-78
2021/08/06 06:57:57;;;;;;;;;;;;;;;31.56;31.73;97700.34;5029951;28;19917;-80
2021/08/06 07:00:24;;;;;;;;;;;;;;;31.61;31.47;97699.75;5031051;28;19913;-80
2021/08/06 07:02:49;;;;;;;;;;;;;;;31.71;31.59;97697.84;5029809;28;19975;-80
2021/08/06 07:05:15;;;;;;;;;;;;;;;31.62;30.92;97701.28;5029544;28;19921;-78
2021/08/06 07:07:41;;;;;;;;;;;;;;;31.56;31.05;97711.41;5063037;28;19964;-78
2021/08/06 07:10:10;;;;;;;;;;;;;;;31.48;31.66;97708.09;5033245;28;19952;-79
2021/08/06 07:12:38;;;;;;;;;;;;;;;31.48;31.56;97713.63;5034696;28;19913;-78
2021/08/06 07:15:04;;;;;;;;;;;;;;;31.43;31.27;97706.72;5034719;28;19967;-79
2021/08/06 07:17:33;;;;;;;;;;;;;;;31.51;31.72;97720.28;5033241;28;19919;-79
2021/08/06 07:19:58;;;;;;;;;;;;;;;31.50;30.91;97715.97;5034790;28;19917;-78
2021/08/06 07:22:24;;;;;;;;;;;;;;;31.55;30.24;97713.38;5034275;28;20376;-79
2021/08/06 07:24:50;;;;;;;;;;;;;;;31.56;29.94;97714.91;5033478;28;19971;-79
2021/08/06 07:27:15;;;;;;;;;;;;;;;31.66;30.80;97707.47;5034429;28;20398;-79
2021/08/06 07:29:40;;;;;;;;;;;;;;;31.64;30.24;97712.69;5034275;28;19917;-79
2021/08/06 07:32:06;;;;;;;;;;;;;;;31.64;30.17;97693.34;5034512;28;19962;-80
2021/08/06 07:34:31;;;;;;;;;;;;;;;31.65;29.59;97692.13;5033045;28;19971;-80
2021/08/06 07:36:56;;;;;;;;;;;;;;;31.66;29.57;97692.91;5033289;28;19913;-80
2021/08/06 07:39:22;;;;;;;;;;;;;;;31.76;29.56;97692.50;5034184;28;20315;-80
2021/08/06 07:41:47;;;;;;;;;;;;;;;31.87;29.56;97686.56;5033067;28;19967;-80
2021/08/06 07:44:12;;;;;;;;;;;;;;;31.94;28.56;97704.84;5032956;28;20416;-79
2021/08/06 07:46:37;;;;;;;;;;;;;;;31.97;28.70;97694.88;5034486;28;19912;-79
2021/08/06 07:49:03;;;;;;;;;;;;;;;31.97;28.56;97695.66;5034553;28;20016;-80
2021/08/06 07:51:28;;;;;;;;;;;;;;;31.98;29.34;97699.94;5034012;28;19917;-78
2021/08/06 07:53:53;;;;;;;;;;;;;;;31.96;29.11;97694.13;5033198;28;19913;-80
2021/08/06 07:56:19;;;;;;;;;;;;;;;32.01;29.01;97693.53;5033005;28;19913;-79
2021/08/06 07:58:44;;;;;;;;;;;;;;;31.97;29.07;97692.91;5033108;28;19917;-79
2021/08/06 08:01:09;;;;;;;;;;;;;;;31.99;29.42;97697.97;5034179;28;19919;-79
2021/08/06 08:03:35;;;;;;;;;;;;;;;32.07;29.72;97688.19;5034589;28;19913;-79
2021/08/06 08:06:00;;;;;;;;;;;;;;;32.16;29.11;97688.19;5032633;28;19917;-80
2021/08/06 08:08:26;;;;;;;;;;;;;;;32.25;29.29;97688.25;5033702;28;19936;-80
2021/08/06 08:10:52;;;;;;;;;;;;;;;32.31;28.72;97688.44;5032779;28;20315;-80
2021/08/06 08:13:17;;;;;;;;;;;;;;;32.31;29.21;97693.19;5033792;28;19913;-80
2021/08/06 08:15:42;;;;;;;;;;;;;;;32.31;28.22;97693.97;5034004;28;19913;-80
2021/08/06 08:18:08;;;;;;;;;;;;;;;32.22;29.03;97689.16;5032458;28;19913;-80
2021/08/06 08:20:33;;;;;;;;;;;;;;;32.32;29.33;97694.75;5033251;28;19913;-79
2021/08/06 08:22:58;;;;;;;;;;;;;;;32.19;28.75;97690.06;5032511;28;19980;-80
2021/08/06 08:25:23;;;;;;;;;;;;;;;32.19;29.56;97687.28;5031766;28;19967;-80
2021/08/06 08:27:49;;;;;;;;;;;;;;;32.18;29.04;97688.53;5033256;28;20410;-79
2021/08/06 08:30:14;;;;;;;;;;;;;;;32.18;28.95;97680.22;5031461;28;19920;-80
2021/08/06 08:32:39;;;;;;;;;;;;;;;32.29;29.90;97684.56;5033560;28;19963;-78
2021/08/06 08:35:05;;;;;;;;;;;;;;;32.38;29.24;97677.06;5032043;28;20430;-80
2021/08/06 08:37:31;;;;;;;;;;;;;;;32.44;29.16;97679.25;5064961;28;19921;-80
2021/08/06 08:39:56;;;;;;;;;;;;;;;32.58;29.01;97678.66;5031878;28;20302;-79
2021/08/06 08:42:22;;;;;;;;;;;;;;;32.70;29.02;97671.44;5031530;28;20384;-80
2021/08/06 08:44:48;;;;;;;;;;;;;;;32.80;28.97;97669.47;5031810;28;20000;-80
2021/08/06 08:47:17;;;;;;;;;;;;;;;32.88;28.50;97676.25;5064603;28;19913;-80
2021/08/06 08:49:43;;;;;;;;;;;;;;;32.90;28.71;97668.25;5031695;28;19913;-80
2021/08/06 08:52:08;;;;;;;;;;;;;;;32.98;28.43;97671.47;5064812;28;19920;-80
2021/08/06 08:54:34;;;;;;;;;;;;;;;32.98;28.65;97682.56;5031276;28;19919;-80
2021/08/06 08:56:59;;;;;;;;;;;;;;;33.00;27.84;97674.56;5031600;28;20300;-79
2021/08/06 08:59:24;;;;;;;;;;;;;;;32.89;27.58;97686.09;5032770;28;20308;-79
2021/08/06 09:01:49;;;;;;;;;;;;;;;32.79;28.02;97679.78;5033008;28;19963;-79
2021/08/06 09:04:25;;;;;;;;;;;;;;;32.72;28.61;97691.13;5031573;28;20435;-80
2021/08/06 09:06:51;;;;;;;;;;;;;;;32.67;28.92;97667.59;5031495;28;19913;-80
2021/08/06 09:09:20;;;;;;;;;;;;;;;32.75;28.65;97686.66;5064554;28;19913;-80
2021/08/06 09:11:46;;;;;;;;;;;;;;;32.77;27.92;97687.00;5031465;28;19935;-80
2021/08/06 09:14:24;;;;;;;;;;;;;;;32.71;27.88;97671.00;5064426;28;20396;-80
2021/08/06 09:16:56;;;;;;;;;;;;;;;32.66;27.91;97659.75;5032664;28;20360;-80
2021/08/06 09:19:21;;;;;;;;;;;;;;;32.57;28.29;97663.28;5032458;28;20404;-79
2021/08/06 09:21:47;;;;;;;;;;;;;;;32.49;28.17;97660.03;5031212;28;19920;-79
2021/08/06 09:24:12;;;;;;;;;;;;;;;32.50;28.21;97658.81;5032529;28;19913;-80
2021/08/06 09:26:44;;;;;;;;;;;;;;;32.56;28.55;97673.56;5032522;28;19942;-80
2021/08/06 09:29:17;;;;;;;;;;;;;;;32.72;29.29;97666.97;5032463;28;19956;-80
2021/08/06 09:31:54;;;;;;;;;;;;;;;32.82;29.05;97658.72;5030256;28;20300;-80
2021/08/06 09:34:24;;;;;;;;;;;;;;;32.89;29.59;97659.16;5031955;28;20368;-80
2021/08/06 09:36:59;;;;;;;;;;;;;;;32.89;30.27;97659.16;5030877;28;20411;-80
2021/08/06 09:39:28;;;;;;;;;;;;;;;32.93;29.74;97653.47;5030736;28;19920;-81
2021/08/06 09:41:54;;;;;;;;;;;;;;;33.01;29.75;97660.25;5030908;28;20357;-81
2021/08/06 09:44:27;;;;;;;;;;;;;;;33.04;29.84;97650.25;5030632;28;19913;-81
2021/08/06 09:46:52;;;;;;;;;;;;;;;32.98;29.89;97652.88;5030759;28;19913;-81
2021/08/06 09:49:18;;;;;;;;;;;;;;;32.97;29.63;97658.84;5030598;28;20369;-80
2021/08/06 09:51:46;;;;;;;;;;;;;;;32.88;30.13;97652.09;5030572;28;19956;-80
2021/08/06 09:54:16;;;;;;;;;;;;;;;32.84;30.32;97645.19;5030723;28;19917;-80
2021/08/06 09:56:42;;;;;;;;;;;;;;;32.80;29.91;97645.34;5031739;28;19923;-80
2021/08/06 09:59:07;;;;;;;;;;;;;;;32.82;29.97;97637.31;5032116;28;19913;-80
2021/08/06 10:01:32;;;;;;;;;;;;;;;32.84;29.83;97628.56;5030383;28;19971;-80
2021/08/06 10:04:11;;;;;;;;;;;;;;;32.92;29.18;97629.03;5031801;28;19913;-80
2021/08/06 10:06:37;;;;;;;;;;;;;;;32.94;29.28;97629.34;5030425;28;19920;-80
2021/08/06 10:09:02;;;;;;;;;;;;;;;33.02;29.09;97625.00;5030460;28;19913;-80
2021/08/06 10:11:27;;;;;;;;;;;;;;;33.13;28.95;97619.78;5030222;28;19913;-80
2021/08/06 10:13:53;;;;;;;;;;;;;;;33.27;29.23;97612.81;5030477;28;20302;-80
2021/08/06 10:16:19;;;;;;;;;;;;;;;33.35;28.78;97621.59;5030262;28;19913;-80
2021/08/06 10:18:44;;;;;;;;;;;;;;;33.35;28.94;97616.81;5031952;28;19920;-81
2021/08/06 10:21:10;;;;;;;;;;;;;;;33.44;29.19;97618.03;5030276;28;19913;-80
2021/08/06 10:23:35;;;;;;;;;;;;;;;33.56;29.29;97611.53;5030127;28;19966;-80
2021/08/06 10:26:01;;;;;;;;;;;;;;;33.68;29.22;97616.09;5030112;28;20368;-79
2021/08/06 10:28:27;;;;;;;;;;;;;;;33.73;28.40;97625.78;5029976;28;19955;-80
2021/08/06 10:31:12;;;;;;;;;;;;;;;33.69;28.66;97622.41;5063204;28;19921;-81
2021/08/06 10:33:57;;;;;;;;;;;;;;;33.55;28.83;97617.53;5031034;28;20068;-79
2021/08/06 10:36:38;;;;;;;;;;;;;;;33.47;28.88;97625.41;5030682;28;19913;-80
2021/08/06 10:39:04;;;;;;;;;;;;;;;33.41;28.79;97622.50;5030139;28;20285;-80
2021/08/06 10:41:48;;;;;;;;;;;;;;;33.35;28.52;97619.59;5029847;28;20062;-80
2021/08/06 10:44:13;;;;;;;;;;;;;;;33.30;28.56;97623.00;5035743;28;20018;-80
2021/08/06 10:46:51;;;;;;;;;;;;;;;33.21;28.54;97620.22;5034071;28;20004;-80
2021/08/06 10:49:16;;;;;;;;;;;;;;;33.19;28.37;97612.38;5034286;28;19919;-80
2021/08/06 10:51:41;;;;;;;;;;;;;;;33.14;28.78;97618.53;5034059;28;20007;-80
2021/08/06 10:54:07;;;;;;;;;;;;;;;33.02;28.65;97614.72;5035206;28;20407;-80
2021/08/06 10:56:33;;;;;;;;;;;;;;;32.99;28.95;97621.16;5035224;28;19920;-80
2021/08/06 10:59:12;;;;;;;;;;;;;;;32.92;29.11;97621.47;5035226;28;19913;-80
2021/08/06 11:01:38;;;;;;;;;;;;;;;32.87;28.92;97622.88;5033683;28;19917;-80
2021/08/06 11:04:05;;;;;;;;;;;;;;;32.83;28.76;97616.72;5034051;28;19917;-80
2021/08/06 11:06:30;;;;;;;;;;;;;;;32.81;28.77;97616.44;5033697;28;20278;-80
2021/08/06 11:08:56;;;;;;;;;;;;;;;32.81;28.74;97621.19;5033894;28;19913;-80
2021/08/06 11:11:41;;;;;;;;;;;;;;;32.76;28.73;97622.56;5033454;28;20423;-80
2021/08/06 11:14:07;;;;;;;;;;;;;;;32.70;28.98;97647.31;5033818;28;19999;-80
2021/08/06 11:16:32;;;;;;;;;;;;;;;32.71;29.27;97653.59;5066722;28;19920;-80
2021/08/06 11:18:57;;;;;;;;;;;;;;;32.67;29.44;97653.75;5034673;28;19948;-80
2021/08/06 11:21:23;;;;;;;;;;;;;;;32.60;29.68;97656.81;5033515;28;20360;-80
2021/08/06 11:23:56;;;;;;;;;;;;;;;32.51;29.73;97659.59;5033660;28;19920;-80
2021/08/06 11:26:21;;;;;;;;;;;;;;;32.39;29.92;97658.50;5034707;28;19921;-80
2021/08/06 11:28:46;;;;;;;;;;;;;;;32.29;29.98;97654.16;5034880;28;20335;-79
2021/08/06 11:31:16;;;;;;;;;;;;;;;32.19;30.21;97656.09;5033489;28;20299;-80
2021/08/06 11:33:41;;;;;;;;;;;;;;;32.11;30.01;97652.09;5032997;28;20415;-79
2021/08/06 11:36:16;;;;;;;;;;;;;;;32.05;30.31;97660.22;5033327;28;19939;-80
2021/08/06 11:38:41;;;;;;;;;;;;;;;31.93;30.44;97659.09;5033098;28;20003;-80
2021/08/06 11:41:07;;;;;;;;;;;;;;;31.84;30.85;97661.84;5032892;28;19957;-80
2021/08/06 11:43:34;;;;;;;;;;;;;;;31.77;31.06;97662.84;5066143;28;19966;-80
2021/08/06 11:46:10;;;;;;;;;;;;;;;31.68;31.03;97658.06;5034174;28;19913;-80
2021/08/06 11:48:59;;;;;;;;;;;;;;;31.59;31.45;97644.16;5034094;28;19971;-80
2021/08/06 11:51:25;;;;;;;;;;;;;;;31.51;31.52;97648.44;5032735;28;19912;-80
2021/08/06 11:53:50;;;;;;;;;;;;;;;31.43;31.76;97657.00;5033451;28;19924;-79
2021/08/06 11:56:20;;;;;;;;;;;;;;;31.37;32.41;97653.28;5034125;28;19913;-80
2021/08/06 11:58:46;;;;;;;;;;;;;;;31.29;32.26;97652.00;5033044;28;19915;-79
2021/08/06 12:01:19;;;;;;;;;;;;;;;31.24;32.65;97650.56;5032984;28;19924;-80
2021/08/06 12:03:46;;;;;;;;;;;;;;;31.18;32.89;97665.44;5033936;28;19939;-79
2021/08/06 12:06:15;;;;;;;;;;;;;;;31.13;32.96;97675.81;5066248;28;19913;-79
2021/08/06 12:08:40;;;;;;;;;;;;;;;31.05;33.11;97673.72;5033903;28;19940;-80
2021/08/06 12:11:06;;;;;;;;;;;;;;;30.96;33.00;97669.66;5032618;28;20375;-79
2021/08/06 12:13:35;;;;;;;;;;;;;;;30.89;32.97;97664.41;5033924;28;19948;-79
2021/08/06 12:16:27;;;;;;;;;;;;;;;30.84;33.07;97670.50;5032720;28;19940;-79
2021/08/06 12:18:52;;;;;;;;;;;;;;;30.76;33.16;97660.91;5031693;28;19917;-79
2021/08/06 12:21:18;;;;;;;;;;;;;;;30.73;33.08;97665.34;5032406;28;19966;-79
2021/08/06 12:23:49;;;;;;;;;;;;;;;30.66;33.13;97657.28;5032037;28;20352;-79
2021/08/06 12:26:14;;;;;;;;;;;;;;;30.56;33.38;97656.44;5033581;28;19924;-79
2021/08/06 12:28:45;;;;;;;;;;;;;;;30.51;33.56;97662.53;5032146;28;19991;-79
2021/08/06 12:31:10;;;;;;;;;;;;;;;30.46;33.50;97669.34;5033483;28;19913;-79
2021/08/06 12:33:35;;;;;;;;;;;;;;;30.45;33.71;97676.06;5031951;28;19913;-79
2021/08/06 12:36:11;;;;;;;;;;;;;;;30.41;33.79;97680.19;5033174;28;19917;-79
2021/08/06 12:38:36;;;;;;;;;;;;;;;30.38;33.79;97681.81;5031863;28;19919;-79
2021/08/06 12:41:02;;;;;;;;;;;;;;;30.36;33.96;97689.78;5032152;28;20016;-79
2021/08/06 12:43:27;;;;;;;;;;;;;;;30.31;34.21;97687.56;5033108;28;19917;-79
2021/08/06 12:46:10;;;;;;;;;;;;;;;30.26;34.17;97672.38;5033469;28;19912;-79